Time;durP1;ratioP1;P1;durP2;ratioP2;P2;SDS_P1;SDS_P2;PMS_P1;PMS_P2;Temp;Humidity;BMP_temperature;BMP_pressure;BME280_temperature;BME280_humidity;BME280_pressure;Samples;Min_cycle;Max_cycle;Signal;HPM_P1;HPM_P2
2023/03/01 00:01:16;;;;;;;0.00;0.00;;;;;;;12.24;50.31;95599.88;5052779;28;20446;-62
2023/03/01 00:03:43;;;;;;;0.00;0.00;;;;;;;12.28;49.80;95595.69;5060204;28;20457;-62
2023/03/01 00:06:11;;;;;;;0.07;0.07;;;;;;;12.25;50.16;95588.31;5049969;28;20435;-63
2023/03/01 00:08:38;;;;;;;0.43;0.43;;;;;;;12.37;49.97;95591.56;5060200;28;20499;-64
2023/03/01 00:11:06;;;;;;;0.10;0.10;;;;;;;12.17;50.17;95583.50;5048490;28;20459;-62
2023/03/01 00:13:34;;;;;;;0.50;0.50;;;;;;;11.92;50.65;95585.84;5053554;28;20490;-65
2023/03/01 00:16:06;;;;;;;0.00;0.00;;;;;;;12.05;50.37;95588.09;5060132;28;20863;-65
2023/03/01 00:18:33;;;;;;;0.00;0.00;;;;;;;11.67;51.29;95569.81;5049035;28;20450;-65
2023/03/01 00:21:00;;;;;;;0.00;0.00;;;;;;;11.69;50.85;95584.31;5054942;28;20454;-64
2023/03/01 00:23:28;;;;;;;0.00;0.00;;;;;;;11.44;51.16;95576.06;5057072;28;20950;-63
2023/03/01 00:25:55;;;;;;;0.00;0.00;;;;;;;11.86;50.81;95565.84;5048441;28;20443;-63
2023/03/01 00:28:22;;;;;;;0.00;0.00;;;;;;;11.97;50.15;95564.91;5049424;28;20439;-63
2023/03/01 00:30:49;;;;;;;0.00;0.00;;;;;;;11.87;50.72;95564.81;5048658;28;20566;-64
2023/03/01 00:33:17;;;;;;;0.10;0.10;;;;;;;11.89;50.34;95562.72;5047565;28;20443;-64
2023/03/01 00:35:44;;;;;;;0.00;0.00;;;;;;;11.75;50.94;95561.53;5054093;28;20501;-65
2023/03/01 00:38:11;;;;;;;0.00;0.00;;;;;;;11.89;50.94;95565.34;5061300;28;20511;-63
2023/03/01 00:40:38;;;;;;;0.07;0.07;;;;;;;11.95;50.12;95561.75;5057801;28;20439;-63
2023/03/01 00:43:05;;;;;;;0.00;0.00;;;;;;;11.78;50.38;95559.19;5048866;28;20858;-66
2023/03/01 00:45:32;;;;;;;0.00;0.00;;;;;;;11.63;51.13;95552.94;5050418;28;20492;-64
2023/03/01 00:47:59;;;;;;;0.20;0.20;;;;;;;11.73;51.03;95553.09;5049322;28;20830;-65
2023/03/01 00:50:27;;;;;;;0.27;0.27;;;;;;;11.95;50.53;95551.25;5058991;28;20862;-63
2023/03/01 00:52:55;;;;;;;0.00;0.00;;;;;;;11.89;50.11;95562.72;5058888;28;20866;-61
2023/03/01 00:55:23;;;;;;;0.00;0.00;;;;;;;11.57;51.19;95559.19;5055927;28;20506;-63
2023/03/01 00:57:50;;;;;;;0.00;0.00;;;;;;;11.68;50.89;95553.81;5069420;28;20446;-64
2023/03/01 01:00:18;;;;;;;0.00;0.00;;;;;;;11.92;50.19;95551.72;5061816;28;20550;-63
2023/03/01 01:02:47;;;;;;;0.00;0.00;;;;;;;11.98;50.01;95548.09;5055726;28;20800;-62
2023/03/01 01:05:14;;;;;;;0.40;0.20;;;;;;;11.54;51.32;95544.72;5052367;28;20488;-61
2023/03/01 01:07:41;;;;;;;0.00;0.00;;;;;;;11.40;51.68;95542.72;5052336;28;20447;-63
2023/03/01 01:10:08;;;;;;;0.00;0.00;;;;;;;11.59;51.12;95557.09;5060617;28;20527;-64
2023/03/01 01:12:37;;;;;;;0.00;0.00;;;;;;;11.51;51.56;95550.47;5057530;28;20439;-62
2023/03/01 01:15:04;;;;;;;0.37;0.37;;;;;;;11.66;51.09;95558.53;5057304;28;20496;-63
2023/03/01 01:17:31;;;;;;;0.00;0.00;;;;;;;11.62;50.89;95556.63;5067139;28;20810;-62
2023/03/01 01:19:57;;;;;;;0.10;0.10;;;;;;;11.63;51.02;95552.94;5064251;28;20964;-64
2023/03/01 01:22:24;;;;;;;0.00;0.00;;;;;;;11.61;51.02;95552.38;5053340;28;20535;-62
2023/03/01 01:24:51;;;;;;;0.00;0.00;;;;;;;11.82;51.06;95552.44;5052202;28;20211;-62
2023/03/01 01:27:18;;;;;;;0.00;0.00;;;;;;;11.73;50.40;95547.84;5053417;28;21006;-64
2023/03/01 01:29:46;;;;;;;0.00;0.00;;;;;;;11.33;51.53;95550.75;5060367;28;20635;-63
2023/03/01 01:32:13;;;;;;;0.00;0.00;;;;;;;11.23;51.54;95548.81;5058318;28;20451;-62
2023/03/01 01:34:39;;;;;;;0.00;0.00;;;;;;;10.76;52.08;95563.38;5051918;28;20973;-63
2023/03/01 01:37:07;;;;;;;0.00;0.00;;;;;;;10.83;52.31;95553.50;5066715;28;20454;-66
2023/03/01 01:39:35;;;;;;;0.00;0.00;;;;;;;11.16;51.89;95557.88;5063339;28;20458;-64
2023/03/01 01:42:02;;;;;;;0.00;0.00;;;;;;;11.11;51.72;95569.09;5056931;28;20203;-63
2023/03/01 01:44:30;;;;;;;0.00;0.00;;;;;;;11.22;51.72;95568.19;5051635;28;20439;-64
2023/03/01 01:47:03;;;;;;;0.00;0.00;;;;;;;11.12;51.69;95570.69;5049478;28;20497;-63
2023/03/01 01:49:29;;;;;;;0.50;0.20;;;;;;;11.23;51.15;95569.78;5049900;28;20483;-64
2023/03/01 01:52:31;;;;;;;0.00;0.00;;;;;;;10.95;52.36;95577.78;5063254;28;21003;-63
2023/03/01 01:55:05;;;;;;;0.00;0.00;;;;;;;11.36;51.12;95570.47;5068700;28;20449;-66
2023/03/01 01:57:54;;;;;;;0.00;0.00;;;;;;;11.11;51.37;95563.84;5050902;28;20782;-63
2023/03/01 02:00:23;;;;;;;0.00;0.00;;;;;;;11.27;51.04;95549.13;5061848;28;20455;-63
2023/03/01 02:03:04;;;;;;;0.00;0.00;;;;;;;11.49;50.46;95554.34;5048973;28;20457;-65
2023/03/01 02:05:44;;;;;;;0.00;0.00;;;;;;;11.40;50.81;95553.19;5051150;28;20439;-64
2023/03/01 02:08:13;;;;;;;0.00;0.00;;;;;;;11.20;50.88;95538.00;5057221;28;20450;-64
2023/03/01 02:10:41;;;;;;;0.00;0.00;;;;;;;11.20;50.58;95533.53;5064994;28;20482;-63
2023/03/01 02:13:10;;;;;;;0.00;0.00;;;;;;;11.21;50.61;95529.09;5061575;28;20481;-64
2023/03/01 02:15:39;;;;;;;0.00;0.00;;;;;;;11.38;50.54;95529.03;5060981;28;21158;-63
2023/03/01 02:18:07;;;;;;;0.00;0.00;;;;;;;11.23;50.56;95527.81;5057926;28;20196;-64
2023/03/01 02:20:55;;;;;;;0.10;0.10;;;;;;;11.49;49.96;95533.38;5059932;28;21023;-62
2023/03/01 02:23:22;;;;;;;0.00;0.00;;;;;;;11.49;50.14;95531.53;5055080;28;20570;-61
2023/03/01 02:26:40;;;;;;;0.00;0.00;;;;;;;11.44;49.79;95538.56;5067248;28;20997;-65
2023/03/01 02:29:07;;;;;;;0.00;0.00;;;;;;;11.43;50.12;95531.72;5064077;28;20449;-63
2023/03/01 02:31:44;;;;;;;0.00;0.00;;;;;;;11.44;49.87;95539.34;5062789;28;20466;-62
2023/03/01 02:34:21;;;;;;;0.00;0.00;;;;;;;11.52;49.95;95536.28;5065358;28;20454;-64
2023/03/01 02:37:04;;;;;;;0.00;0.00;;;;;;;11.16;50.77;95548.19;5051915;28;20441;-64
2023/03/01 02:39:41;;;;;;;0.27;0.27;;;;;;;11.38;50.67;95550.03;5049420;28;20478;-64
2023/03/01 02:42:12;;;;;;;0.00;0.00;;;;;;;11.39;50.58;95548.97;5061733;28;20450;-63
2023/03/01 02:44:39;;;;;;;0.00;0.00;;;;;;;11.34;50.50;95548.91;5059487;28;20443;-62
2023/03/01 02:47:06;;;;;;;0.00;0.00;;;;;;;10.74;51.43;95518.25;5049705;28;20508;-64
2023/03/01 02:49:36;;;;;;;0.00;0.00;;;;;;;11.33;51.17;95547.34;5063016;28;20499;-63
2023/03/01 02:52:28;;;;;;;0.00;0.00;;;;;;;11.33;50.78;95542.09;5052374;28;20442;-63
2023/03/01 02:55:17;;;;;;;0.00;0.00;;;;;;;11.18;51.14;95550.56;5051016;28;20479;-65
2023/03/01 02:57:46;;;;;;;0.00;0.00;;;;;;;11.30;50.71;95545.19;5049214;28;21021;-64
2023/03/01 03:00:20;;;;;;;0.00;0.00;;;;;;;11.24;50.93;95539.88;5058277;28;20450;-64
2023/03/01 03:02:50;;;;;;;0.00;0.00;;;;;;;11.36;50.56;95536.34;5055130;28;20544;-64
2023/03/01 03:05:24;;;;;;;0.00;0.00;;;;;;;11.49;50.15;95538.63;5054866;28;20952;-64
2023/03/01 03:07:55;;;;;;;0.00;0.00;;;;;;;11.14;50.89;95547.66;5060482;28;20230;-63
2023/03/01 03:10:25;;;;;;;0.00;0.00;;;;;;;11.10;50.94;95541.28;5066415;28;20482;-63
2023/03/01 03:12:55;;;;;;;0.10;0.10;;;;;;;11.29;50.87;95541.00;5052447;28;20478;-61
2023/03/01 03:15:22;;;;;;;0.00;0.00;;;;;;;11.34;50.47;95543.66;5051229;28;20793;-64
2023/03/01 03:17:51;;;;;;;0.00;0.00;;;;;;;11.26;50.77;95551.97;5050067;28;20484;-63
2023/03/01 03:20:21;;;;;;;0.68;0.52;;;;;;;11.22;51.15;95547.19;5049735;28;20474;-63
2023/03/01 03:22:50;;;;;;;0.00;0.00;;;;;;;10.99;51.50;95547.44;5062735;28;20254;-66
2023/03/01 03:25:18;;;;;;;0.00;0.00;;;;;;;11.04;51.46;95544.88;5056505;28;20442;-64
2023/03/01 03:27:47;;;;;;;0.00;0.00;;;;;;;10.88;51.52;95553.56;5062134;28;21981;-62
2023/03/01 03:30:17;;;;;;;0.00;0.00;;;;;;;10.96;51.50;95553.16;5049546;28;20474;-65
2023/03/01 03:32:51;;;;;;;0.20;0.20;;;;;;;11.23;50.75;95558.50;5053248;28;20532;-63
2023/03/01 03:35:29;;;;;;;0.33;0.33;;;;;;;11.26;50.48;95542.25;5049142;28;20551;-64
2023/03/01 03:38:02;;;;;;;0.00;0.00;;;;;;;11.12;51.08;95551.53;5049581;28;21003;-63
2023/03/01 03:40:58;;;;;;;0.00;0.00;;;;;;;11.23;51.02;95546.19;5050651;28;20826;-64
2023/03/01 03:43:24;;;;;;;1.23;0.27;;;;;;;11.21;50.89;95545.63;5061299;28;20457;-64
2023/03/01 03:45:51;;;;;;;0.00;0.00;;;;;;;10.84;51.61;95549.03;5053415;28;20480;-64
2023/03/01 03:48:19;;;;;;;0.17;0.17;;;;;;;10.84;51.42;95530.69;5066331;28;20449;-62
2023/03/01 03:51:09;;;;;;;0.00;0.00;;;;;;;10.94;51.46;95560.47;5048845;28;20798;-63
2023/03/01 03:53:36;;;;;;;0.47;0.43;;;;;;;11.10;51.48;95556.22;5049330;28;20504;-62
2023/03/01 03:56:03;;;;;;;0.00;0.00;;;;;;;10.98;51.51;95556.31;5060026;28;20433;-64
2023/03/01 03:58:32;;;;;;;0.00;0.00;;;;;;;11.29;50.84;95556.72;5050943;28;20453;-62
2023/03/01 04:01:17;;;;;;;0.20;0.20;;;;;;;11.31;50.60;95559.91;5061217;28;20445;-62
2023/03/01 04:03:46;;;;;;;0.13;0.13;;;;;;;11.17;50.48;95543.72;5060224;28;20517;-64
2023/03/01 04:06:16;;;;;;;0.00;0.00;;;;;;;11.24;50.70;95566.13;5053467;28;20869;-65
2023/03/01 04:08:42;;;;;;;0.20;0.20;;;;;;;11.32;50.85;95561.50;5050211;28;20266;-65
2023/03/01 04:11:26;;;;;;;0.00;0.00;;;;;;;11.29;50.40;95569.84;5049863;28;20548;-64
2023/03/01 04:13:57;;;;;;;0.00;0.00;;;;;;;11.27;50.85;95564.06;5049649;28;20580;-62
2023/03/01 04:16:24;;;;;;;0.00;0.00;;;;;;;11.40;50.52;95568.94;5049058;28;20254;-64
2023/03/01 04:18:53;;;;;;;0.00;0.00;;;;;;;11.53;50.08;95571.22;5060842;28;20569;-63
2023/03/01 04:21:20;;;;;;;0.00;0.00;;;;;;;11.44;51.40;95572.69;5064555;28;20445;-63
2023/03/01 04:23:47;;;;;;;0.00;0.00;;;;;;;11.45;51.28;95571.63;5054307;28;20231;-62
2023/03/01 04:26:14;;;;;;;0.00;0.00;;;;;;;11.47;50.86;95564.31;5056978;28;20461;-63
2023/03/01 04:28:45;;;;;;;0.20;0.20;;;;;;;11.35;51.14;95566.25;5053106;28;20442;-64
2023/03/01 04:31:17;;;;;;;1.27;1.17;;;;;;;11.08;51.02;95560.91;5052405;28;20516;-67
2023/03/01 04:33:51;;;;;;;1.17;0.97;;;;;;;11.16;50.92;95558.69;5062831;28;20239;-64
2023/03/01 04:36:24;;;;;;;0.00;0.00;;;;;;;11.00;51.35;95567.38;5060434;28;20527;-61
2023/03/01 04:38:51;;;;;;;0.00;0.00;;;;;;;11.06;51.14;95569.03;5053552;28;20451;-66
2023/03/01 04:41:20;;;;;;;0.00;0.00;;;;;;;11.00;51.17;95569.22;5052382;28;20201;-63
2023/03/01 04:43:48;;;;;;;0.00;0.00;;;;;;;11.06;51.24;95563.78;5052545;28;20447;-65
2023/03/01 04:46:19;;;;;;;0.00;0.00;;;;;;;11.03;51.16;95548.53;5052203;28;20261;-62
2023/03/01 04:48:47;;;;;;;0.20;0.13;;;;;;;10.89;51.08;95549.91;5066269;28;20231;-63
2023/03/01 04:51:14;;;;;;;0.00;0.00;;;;;;;11.11;50.67;95550.72;5068895;28;21076;-62
2023/03/01 04:53:42;;;;;;;0.00;0.00;;;;;;;11.03;50.96;95558.22;5066567;28;20992;-65
2023/03/01 04:56:09;;;;;;;0.00;0.00;;;;;;;11.17;50.76;95555.00;5062727;28;20458;-62
2023/03/01 04:58:37;;;;;;;0.00;0.00;;;;;;;11.09;50.78;95547.56;5064631;28;20705;-64
2023/03/01 05:01:16;;;;;;;0.47;0.40;;;;;;;11.05;50.88;95556.97;5063125;28;20450;-64
2023/03/01 05:03:45;;;;;;;0.45;0.45;;;;;;;11.16;50.97;95558.69;5072201;28;20442;-61
2023/03/01 05:06:13;;;;;;;0.20;0.20;;;;;;;10.91;51.05;95555.69;5061160;28;20200;-62
2023/03/01 05:08:41;;;;;;;0.20;0.20;;;;;;;11.11;50.57;95550.72;5071168;28;20813;-63
2023/03/01 05:11:09;;;;;;;0.10;0.10;;;;;;;10.98;51.07;95553.69;5051626;28;21078;-64
2023/03/01 05:13:38;;;;;;;0.57;0.57;;;;;;;10.93;51.55;95558.88;5053142;28;20446;-62
2023/03/01 05:16:06;;;;;;;3.40;0.67;;;;;;;10.88;51.47;95561.44;5051970;28;20431;-61
2023/03/01 05:18:34;;;;;;;0.38;0.38;;;;;;;10.98;51.54;95566.03;5053203;28;20458;-65
2023/03/01 05:21:07;;;;;;;1.95;0.55;;;;;;;11.12;51.13;95560.19;5062239;28;20253;-63
2023/03/01 05:23:34;;;;;;;0.00;0.00;;;;;;;11.22;50.66;95568.19;5070589;28;20200;-63
2023/03/01 05:26:03;;;;;;;0.07;0.07;;;;;;;11.15;50.90;95564.94;5066820;28;20431;-64
2023/03/01 05:28:33;;;;;;;0.40;0.37;;;;;;;11.24;50.69;95563.50;5051789;28;20541;-62
2023/03/01 05:31:01;;;;;;;0.32;0.15;;;;;;;11.20;50.88;95554.53;5064618;28;20524;-63
2023/03/01 05:33:28;;;;;;;0.37;0.37;;;;;;;11.31;50.68;95562.53;5067522;28;20199;-64
2023/03/01 05:35:55;;;;;;;0.00;0.00;;;;;;;11.49;50.34;95560.41;5052550;28;20459;-63
2023/03/01 05:38:22;;;;;;;0.03;0.03;;;;;;;11.37;50.37;95558.94;5062232;28;20193;-63
2023/03/01 05:40:49;;;;;;;0.20;0.20;;;;;;;11.49;50.33;95567.47;5052917;28;20231;-65
2023/03/01 05:43:17;;;;;;;0.07;0.07;;;;;;;11.40;50.11;95571.56;5061062;28;20461;-65
2023/03/01 05:45:45;;;;;;;0.00;0.00;;;;;;;11.27;50.54;95559.59;5046645;28;20482;-63
2023/03/01 05:48:13;;;;;;;0.00;0.00;;;;;;;11.31;50.46;95567.78;5068808;28;20454;-64
2023/03/01 05:50:42;;;;;;;0.70;0.63;;;;;;;11.30;50.26;95559.09;5068951;28;20505;-61
2023/03/01 05:53:09;;;;;;;0.40;0.40;;;;;;;11.47;50.42;95569.56;5049817;28;20939;-65
2023/03/01 05:55:37;;;;;;;0.35;0.30;;;;;;;11.37;50.62;95570.22;5052921;28;20806;-63
2023/03/01 05:58:07;;;;;;;0.00;0.00;;;;;;;11.49;50.24;95583.22;5058775;28;20212;-65
2023/03/01 06:00:34;;;;;;;0.20;0.20;;;;;;;11.21;50.56;95587.59;5048786;28;20564;-67
2023/03/01 06:03:02;;;;;;;0.00;0.00;;;;;;;11.42;50.45;95582.63;5049056;28;20516;-61
2023/03/01 06:05:29;;;;;;;0.57;0.57;;;;;;;11.35;50.30;95582.00;5048772;28;20475;-61
2023/03/01 06:07:59;;;;;;;0.00;0.00;;;;;;;11.40;50.69;95601.25;5049311;28;20904;-65
2023/03/01 06:10:26;;;;;;;0.73;0.60;;;;;;;11.26;50.79;95594.72;5049212;28;20447;-66
2023/03/01 06:12:54;;;;;;;0.73;0.65;;;;;;;11.29;50.99;95596.88;5051388;28;20529;-62
2023/03/01 06:15:21;;;;;;;0.00;0.00;;;;;;;11.12;50.81;95599.53;5051323;28;20214;-65
2023/03/01 06:17:48;;;;;;;1.20;0.85;;;;;;;11.23;50.58;95611.78;5050748;28;20439;-64
2023/03/01 06:20:20;;;;;;;0.00;0.00;;;;;;;11.13;51.01;95616.84;5049338;28;20236;-65
2023/03/01 06:22:49;;;;;;;0.20;0.20;;;;;;;10.94;51.23;95612.91;5051392;28;20443;-65
2023/03/01 06:25:19;;;;;;;0.17;0.17;;;;;;;11.28;50.67;95608.41;5051074;28;20447;-62
2023/03/01 06:27:48;;;;;;;0.63;0.60;;;;;;;10.86;51.30;95602.81;5051852;28;20238;-63
2023/03/01 06:30:18;;;;;;;0.00;0.00;;;;;;;10.95;50.73;95590.09;5050942;28;20435;-67
2023/03/01 06:32:45;;;;;;;0.10;0.10;;;;;;;10.70;51.78;95606.25;5050761;28;20219;-65
2023/03/01 06:35:13;;;;;;;0.00;0.00;;;;;;;11.12;50.92;95611.84;5050957;28;20891;-62
2023/03/01 06:37:41;;;;;;;0.20;0.20;;;;;;;11.31;50.47;95605.31;5050261;28;20439;-66
2023/03/01 06:40:11;;;;;;;0.00;0.00;;;;;;;11.27;50.38;95596.34;5050913;28;20930;-65
2023/03/01 06:42:40;;;;;;;0.30;0.30;;;;;;;11.38;50.32;95613.00;5049029;28;20204;-62
2023/03/01 06:45:08;;;;;;;0.00;0.00;;;;;;;11.26;50.43;95609.69;5050626;28;20510;-66
2023/03/01 06:47:34;;;;;;;0.33;0.33;;;;;;;11.28;49.95;95579.53;5062111;28;20544;-63
2023/03/01 06:50:02;;;;;;;1.08;0.98;;;;;;;11.39;50.55;95593.59;5050033;28;20478;-64
2023/03/01 06:52:30;;;;;;;0.00;0.00;;;;;;;11.34;50.37;95611.88;5049802;28;20270;-64
2023/03/01 06:54:56;;;;;;;0.00;0.00;;;;;;;11.42;50.21;95598.38;5049963;28;20227;-63
2023/03/01 06:57:24;;;;;;;0.33;0.33;;;;;;;11.41;49.99;95608.06;5049775;28;20980;-65
2023/03/01 06:59:50;;;;;;;2.53;0.50;;;;;;;11.32;50.23;95609.50;5050002;28;20451;-64
2023/03/01 07:02:18;;;;;;;0.67;0.50;;;;;;;11.54;49.89;95601.66;5050057;28;20973;-64
2023/03/01 07:04:45;;;;;;;0.00;0.00;;;;;;;11.69;49.57;95607.94;5050248;28;20842;-64
2023/03/01 07:07:11;;;;;;;0.00;0.00;;;;;;;11.56;49.91;95610.09;5050152;28;20489;-66
2023/03/01 07:09:38;;;;;;;0.03;0.03;;;;;;;11.29;50.09;95609.22;5051193;28;20266;-64
2023/03/01 07:12:06;;;;;;;0.00;0.00;;;;;;;11.40;50.49;95597.81;5051359;28;20593;-62
2023/03/01 07:14:32;;;;;;;0.10;0.10;;;;;;;11.30;50.42;95605.53;5049812;28;20520;-62
2023/03/01 07:16:59;;;;;;;0.40;0.40;;;;;;;11.43;50.13;95605.19;5049327;28;20530;-65
2023/03/01 07:19:26;;;;;;;0.20;0.20;;;;;;;11.29;50.66;95606.59;5049305;28;21038;-65
2023/03/01 07:21:53;;;;;;;0.00;0.00;;;;;;;11.55;49.86;95606.66;5049647;28;20542;-66
2023/03/01 07:24:20;;;;;;;2.20;1.10;;;;;;;11.49;50.08;95604.22;5049770;28;20446;-62
2023/03/01 07:26:50;;;;;;;0.10;0.10;;;;;;;11.51;49.92;95596.91;5049453;28;20879;-64
2023/03/01 07:29:18;;;;;;;0.00;0.00;;;;;;;11.43;50.13;95602.56;5050248;28;20886;-64
2023/03/01 07:31:45;;;;;;;0.00;0.00;;;;;;;11.50;50.09;95600.56;5049862;28;20953;-63
2023/03/01 07:34:12;;;;;;;0.10;0.10;;;;;;;11.50;50.21;95593.47;5049987;28;21133;-64
2023/03/01 07:36:39;;;;;;;0.00;0.00;;;;;;;11.72;49.45;95598.75;5049427;28;20438;-63
2023/03/01 07:39:06;;;;;;;0.00;0.00;;;;;;;11.71;49.60;95587.47;5049854;28;20258;-64
2023/03/01 07:41:33;;;;;;;0.00;0.00;;;;;;;11.63;49.86;95584.44;5048989;28;20492;-65
2023/03/01 07:44:00;;;;;;;0.17;0.17;;;;;;;11.99;48.49;95589.06;5049843;28;20452;-66
2023/03/01 07:46:26;;;;;;;0.00;0.00;;;;;;;11.79;48.76;95588.84;5049203;28;20450;-64
2023/03/01 07:48:53;;;;;;;0.00;0.00;;;;;;;11.92;48.52;95583.22;5049665;28;20953;-65
2023/03/01 07:51:20;;;;;;;0.00;0.00;;;;;;;12.25;47.77;95580.41;5049218;28;20471;-64
2023/03/01 07:53:48;;;;;;;0.00;0.00;;;;;;;12.39;47.53;95578.97;5050154;28;20443;-64
2023/03/01 07:56:18;;;;;;;0.00;0.00;;;;;;;12.19;48.05;95581.41;5049062;28;20545;-66
2023/03/01 07:58:45;;;;;;;0.43;0.43;;;;;;;12.40;48.89;95575.31;5048891;28;20451;-65
2023/03/01 08:01:17;;;;;;;0.10;0.10;;;;;;;12.48;48.66;95572.19;5049008;28;20493;-63
2023/03/01 08:03:45;;;;;;;0.00;0.00;;;;;;;12.61;48.26;95565.75;5049913;28;20478;-64
2023/03/01 08:06:14;;;;;;;0.00;0.00;;;;;;;12.46;47.71;95569.06;5048577;28;20533;-64
2023/03/01 08:08:41;;;;;;;0.53;0.53;;;;;;;12.32;47.78;95567.88;5049169;28;20530;-63
2023/03/01 08:11:11;;;;;;;0.00;0.00;;;;;;;12.60;47.59;95559.72;5049143;28;20466;-63
2023/03/01 08:13:38;;;;;;;0.00;0.00;;;;;;;12.58;47.22;95567.03;5059773;28;20446;-69
2023/03/01 08:16:09;;;;;;;0.00;0.00;;;;;;;12.55;47.29;95564.13;5051762;28;20443;-64
2023/03/01 08:18:38;;;;;;;0.47;0.47;;;;;;;12.58;47.36;95566.25;5048948;28;20446;-64
2023/03/01 08:21:06;;;;;;;0.27;0.27;;;;;;;12.59;47.37;95563.34;5048463;28;20530;-66
2023/03/01 08:23:33;;;;;;;0.23;0.23;;;;;;;12.57;47.09;95570.69;5049002;28;20508;-64
2023/03/01 08:26:09;;;;;;;0.10;0.10;;;;;;;11.63;48.52;95573.94;5048492;28;20443;-64
2023/03/01 08:28:36;;;;;;;0.73;0.73;;;;;;;12.27;47.25;95570.44;5049008;28;20485;-67
2023/03/01 08:31:13;;;;;;;0.00;0.00;;;;;;;11.98;48.10;95561.25;5048138;28;20821;-67
2023/03/01 08:33:40;;;;;;;0.77;0.77;;;;;;;12.45;46.92;95562.19;5051225;28;20918;-65
2023/03/01 08:36:07;;;;;;;0.20;0.20;;;;;;;12.65;47.10;95557.09;5048751;28;20487;-63
2023/03/01 08:38:35;;;;;;;0.00;0.00;;;;;;;12.09;47.62;95562.94;5049743;28;20939;-65
2023/03/01 08:41:03;;;;;;;0.60;0.43;;;;;;;12.55;47.47;95562.31;5048769;28;20474;-64
2023/03/01 08:43:30;;;;;;;0.40;0.40;;;;;;;12.56;46.85;95555.19;5049839;28;20453;-66
2023/03/01 08:45:57;;;;;;;0.00;0.00;;;;;;;12.61;46.38;95561.28;5052776;28;20904;-63
2023/03/01 08:48:27;;;;;;;0.00;0.00;;;;;;;12.51;46.29;95566.47;5066036;28;20458;-61
2023/03/01 08:50:54;;;;;;;0.00;0.00;;;;;;;12.56;45.60;95561.25;5053342;28;20447;-62
2023/03/01 08:53:21;;;;;;;0.33;0.33;;;;;;;12.43;46.10;95568.75;5049583;28;20446;-63
2023/03/01 08:55:49;;;;;;;0.00;0.00;;;;;;;12.31;46.24;95566.28;5049388;28;20479;-65
2023/03/01 08:58:16;;;;;;;0.63;0.37;;;;;;;12.42;45.89;95567.97;5049430;28;20466;-64
2023/03/01 09:00:43;;;;;;;0.00;0.00;;;;;;;12.37;46.21;95575.78;5048977;28;20441;-64
2023/03/01 09:03:10;;;;;;;0.00;0.00;;;;;;;12.59;45.82;95579.13;5049078;28;20461;-64
2023/03/01 09:05:37;;;;;;;0.07;0.07;;;;;;;12.40;45.72;95574.50;5047475;28;21157;-65
2023/03/01 09:08:04;;;;;;;0.00;0.00;;;;;;;12.54;45.24;95560.69;5048538;28;20791;-64
2023/03/01 09:10:30;;;;;;;0.23;0.23;;;;;;;12.56;44.86;95561.25;5050937;28;20773;-63
2023/03/01 09:12:57;;;;;;;0.10;0.10;;;;;;;12.13;46.26;95569.28;5052948;28;20585;-65
2023/03/01 09:15:25;;;;;;;0.20;0.20;;;;;;;12.57;46.14;95560.19;5051745;28;21419;-63
2023/03/01 09:17:52;;;;;;;0.00;0.00;;;;;;;12.41;45.50;95571.63;5052186;28;20457;-65
2023/03/01 09:20:19;;;;;;;0.00;0.00;;;;;;;12.12;46.36;95580.81;5052010;28;20867;-64
2023/03/01 09:22:46;;;;;;;0.07;0.07;;;;;;;12.26;45.76;95566.25;5052762;28;20443;-64
2023/03/01 09:25:13;;;;;;;0.00;0.00;;;;;;;11.97;46.45;95559.66;5052192;28;20454;-64
2023/03/01 09:27:40;;;;;;;0.00;0.00;;;;;;;12.62;45.65;95551.56;5051068;28;20451;-62
2023/03/01 09:30:08;;;;;;;0.00;0.00;;;;;;;12.14;46.03;95555.88;5051975;28;20434;-63
2023/03/01 09:32:34;;;;;;;0.00;0.00;;;;;;;12.16;46.56;95551.19;5051437;28;21445;-65
2023/03/01 09:35:04;;;;;;;0.00;0.00;;;;;;;12.39;46.22;95536.91;5052189;28;20449;-63
2023/03/01 09:37:33;;;;;;;0.47;0.47;;;;;;;12.69;46.00;95552.94;5051048;28;20985;-63
2023/03/01 09:40:00;;;;;;;0.00;0.00;;;;;;;12.21;46.14;95560.94;5052729;28;20902;-65
2023/03/01 09:42:30;;;;;;;0.00;0.00;;;;;;;12.24;46.30;95549.94;5050947;28;20813;-63
2023/03/01 09:45:06;;;;;;;0.00;0.00;;;;;;;12.75;45.13;95546.69;5051740;28;20806;-63
2023/03/01 09:47:35;;;;;;;0.00;0.00;;;;;;;12.66;45.82;95553.44;5051283;28;20447;-65
2023/03/01 09:50:11;;;;;;;0.00;0.00;;;;;;;12.57;46.02;95546.28;5051610;28;20446;-64
2023/03/01 09:52:42;;;;;;;0.00;0.00;;;;;;;12.79;45.46;95545.09;5050953;28;20582;-61
2023/03/01 09:55:17;;;;;;;0.00;0.00;;;;;;;12.09;46.67;95541.91;5051683;28;20447;-64
2023/03/01 09:58:04;;;;;;;0.10;0.10;;;;;;;12.24;46.89;95544.69;5052013;28;20858;-63
2023/03/01 10:00:41;;;;;;;0.10;0.10;;;;;;;12.30;46.62;95540.28;5051138;28;20563;-66
2023/03/01 10:03:11;;;;;;;0.00;0.00;;;;;;;12.71;45.37;95531.63;5051599;28;20676;-62
2023/03/01 10:06:04;;;;;;;0.00;0.00;;;;;;;12.76;45.06;95529.84;5062920;28;20442;-62
2023/03/01 10:08:50;;;;;;;0.00;0.00;;;;;;;12.94;45.59;95533.88;5051658;28;20446;-64
2023/03/01 10:11:31;;;;;;;0.00;0.00;;;;;;;13.17;44.95;95523.00;5050579;28;20446;-64
2023/03/01 10:14:19;;;;;;;0.17;0.17;;;;;;;12.77;44.98;95530.63;5051155;28;20486;-64
2023/03/01 10:16:58;;;;;;;0.00;0.00;;;;;;;12.31;46.30;95533.97;5050371;28;20545;-66
2023/03/01 10:19:39;;;;;;;0.10;0.10;;;;;;;12.66;45.74;95532.41;5050917;28;20478;-65
2023/03/01 10:22:21;;;;;;;0.90;0.83;;;;;;;12.45;46.21;95530.66;5049964;28;20475;-66
2023/03/01 10:24:50;;;;;;;0.00;0.00;;;;;;;12.62;45.86;95514.75;5051091;28;20447;-62
2023/03/01 10:27:24;;;;;;;0.00;0.00;;;;;;;12.75;46.04;95520.38;5050598;28;20474;-65
2023/03/01 10:30:12;;;;;;;0.00;0.00;;;;;;;12.73;45.38;95511.16;5050984;28;20438;-62
2023/03/01 10:32:39;;;;;;;0.00;0.00;;;;;;;12.95;44.77;95504.72;5050487;28;20475;-65
2023/03/01 10:35:35;;;;;;;0.00;0.00;;;;;;;13.06;44.21;95505.59;5051259;28;20439;-64
2023/03/01 10:38:08;;;;;;;0.00;0.00;;;;;;;13.07;44.63;95502.69;5053997;28;20447;-65
2023/03/01 10:40:49;;;;;;;0.00;0.00;;;;;;;13.23;44.80;95506.19;5049725;28;20473;-65
2023/03/01 10:43:16;;;;;;;0.00;0.00;;;;;;;13.43;44.24;95487.06;5050908;28;20451;-64
2023/03/01 10:45:43;;;;;;;0.20;0.20;;;;;;;13.49;43.53;95486.00;5050408;28;20438;-67
2023/03/01 10:48:15;;;;;;;0.00;0.00;;;;;;;13.15;43.10;95493.53;5051233;28;20891;-63
2023/03/01 10:50:49;;;;;;;1.13;0.47;;;;;;;12.85;44.14;95498.59;5051295;28;20470;-64
2023/03/01 10:53:31;;;;;;;0.00;0.00;;;;;;;13.01;44.40;95487.91;5050439;28;20490;-66
2023/03/01 10:56:03;;;;;;;0.00;0.00;;;;;;;12.85;45.24;95494.13;5050255;28;20447;-64
2023/03/01 10:58:31;;;;;;;0.00;0.00;;;;;;;12.94;44.83;95492.59;5050379;28;20506;-64
2023/03/01 11:01:22;;;;;;;0.00;0.00;;;;;;;13.27;44.70;95490.66;5050594;28;20439;-64
2023/03/01 11:04:07;;;;;;;0.00;0.00;;;;;;;13.11;44.55;95490.63;5050817;28;20446;-62
2023/03/01 11:06:36;;;;;;;0.00;0.00;;;;;;;13.46;44.30;95483.91;5050065;28;20439;-65
2023/03/01 11:09:24;;;;;;;0.00;0.00;;;;;;;13.51;44.54;95486.53;5050168;28;20471;-64
2023/03/01 11:11:56;;;;;;;0.00;0.00;;;;;;;13.45;44.08;95483.09;5049638;28;20435;-62
2023/03/01 11:14:25;;;;;;;0.00;0.00;;;;;;;13.50;43.70;95492.88;5050144;28;20444;-63
2023/03/01 11:17:12;;;;;;;0.00;0.00;;;;;;;13.45;44.00;95484.97;5049639;28;20469;-66
2023/03/01 11:19:39;;;;;;;0.00;0.00;;;;;;;13.16;43.64;95485.38;5049641;28;20467;-64
2023/03/01 11:22:34;;;;;;;0.10;0.10;;;;;;;13.59;42.89;95488.69;5049427;28;20471;-65
2023/03/01 11:25:02;;;;;;;0.00;0.00;;;;;;;13.51;43.89;95478.66;5050025;28;20450;-63
2023/03/01 11:27:41;;;;;;;0.00;0.00;;;;;;;13.69;43.22;95481.59;5048918;28;21018;-66
2023/03/01 11:30:28;;;;;;;0.00;0.00;;;;;;;13.74;43.50;95483.47;5050078;28;20450;-65
2023/03/01 11:33:04;;;;;;;0.00;0.00;;;;;;;13.50;44.06;95490.25;5049562;28;20486;-63
2023/03/01 11:35:35;;;;;;;0.00;0.00;;;;;;;13.46;43.70;95483.91;5049140;28;20530;-65
2023/03/01 11:38:03;;;;;;;0.00;0.00;;;;;;;13.46;43.25;95482.06;5049274;28;20980;-63
2023/03/01 11:40:48;;;;;;;0.00;0.00;;;;;;;13.34;43.88;95476.22;5049081;28;20995;-62
2023/03/01 11:43:20;;;;;;;0.23;0.23;;;;;;;13.84;43.61;95470.31;5050162;28;20809;-64
2023/03/01 11:45:54;;;;;;;0.00;0.00;;;;;;;14.12;43.19;95467.19;5049416;28;20970;-64
2023/03/01 11:49:01;;;;;;;0.07;0.07;;;;;;;14.30;42.94;95458.78;5062000;28;20491;-65
2023/03/01 11:51:58;;;;;;;0.93;0.47;;;;;;;14.50;42.97;95442.94;5057091;28;20797;-63